createdAt,value
2022-11-14T00:00:13.414Z,25.52
2022-11-14T00:00:35.819Z,25.23
2022-11-14T00:00:57.531Z,27.63
2022-11-14T00:01:19.308Z,28.45
2022-11-14T00:01:41.017Z,26.20
2022-11-14T00:02:02.881Z,27.25
2022-11-14T00:02:24.825Z,27.92
2022-11-14T00:02:47.307Z,26.17
2022-11-14T00:03:10.239Z,26.75
2022-11-14T00:03:32.025Z,26.33
2022-11-14T00:03:53.825Z,27.48
2022-11-14T00:04:15.618Z,27.25
2022-11-14T00:04:37.779Z,26.20
2022-11-14T00:04:59.541Z,25.80
2022-11-14T00:05:22.088Z,24.17
2022-11-14T00:05:45.541Z,26.33
2022-11-14T00:06:08.052Z,26.77
2022-11-14T00:06:29.869Z,26.35
2022-11-14T00:06:51.819Z,23.65
2022-11-14T00:07:13.775Z,27.92
2022-11-14T00:07:35.768Z,28.65
2022-11-14T00:07:57.927Z,30.83
2022-11-14T00:08:21.909Z,27.65
2022-11-14T00:08:43.640Z,27.23
2022-11-14T00:09:05.400Z,27.88
2022-11-14T00:09:30.349Z,28.80
2022-11-14T00:09:52.454Z,27.80
2022-11-14T00:10:15.411Z,28.20
2022-11-14T00:10:37.181Z,25.30
2022-11-14T00:10:58.916Z,26.27
2022-11-14T00:11:21.092Z,30.27
2022-11-14T00:11:42.838Z,28.83
2022-11-14T00:12:05.449Z,31.25
2022-11-14T00:12:27.750Z,27.98
2022-11-14T00:12:49.783Z,27.38
2022-11-14T00:13:11.750Z,30.08
2022-11-14T00:13:33.456Z,27.00
2022-11-14T00:13:55.232Z,25.77
2022-11-14T00:14:17.006Z,30.38
2022-11-14T00:14:39.163Z,29.38
2022-11-14T00:15:00.970Z,28.98
2022-11-14T00:15:22.789Z,28.15
2022-11-14T00:15:48.014Z,29.92
2022-11-14T00:16:09.756Z,26.88
2022-11-14T00:16:31.492Z,27.42
2022-11-14T00:16:53.266Z,27.27
2022-11-14T00:17:17.355Z,27.10
2022-11-14T00:17:39.748Z,27.00
2022-11-14T00:18:02.514Z,29.00
2022-11-14T00:18:24.367Z,31.48
2022-11-14T00:18:46.171Z,29.52
2022-11-14T00:19:07.949Z,28.50
2022-11-14T00:19:29.821Z,27.02
2022-11-14T00:19:51.650Z,25.55
2022-11-14T00:20:14.060Z,26.17
2022-11-14T00:20:35.850Z,25.42
2022-11-14T00:20:57.668Z,25.45
2022-11-14T00:21:19.474Z,25.45
2022-11-14T00:21:41.189Z,24.80
2022-11-14T00:22:03.330Z,25.92
2022-11-14T00:22:25.143Z,25.60
2022-11-14T00:22:46.915Z,25.83
2022-11-14T00:23:08.670Z,25.42
2022-11-14T00:23:30.499Z,24.17
2022-11-14T00:23:52.515Z,26.38
2022-11-14T00:24:14.232Z,26.80
2022-11-14T00:24:36.001Z,23.58
2022-11-14T00:24:57.895Z,23.70
2022-11-14T00:25:19.688Z,25.58
2022-11-14T00:25:41.474Z,26.17
2022-11-14T00:26:03.320Z,23.52
2022-11-14T00:26:25.073Z,24.02
2022-11-14T00:26:47.048Z,24.40
2022-11-14T00:27:08.880Z,23.58
2022-11-14T00:27:30.690Z,22.40
2022-11-14T00:27:52.535Z,24.02
2022-11-14T00:28:14.622Z,26.52
2022-11-14T00:28:36.426Z,26.05
2022-11-14T00:28:58.184Z,23.30
2022-11-14T00:29:19.932Z,22.30
2022-11-14T00:29:41.689Z,23.13
2022-11-14T00:30:03.739Z,23.67
2022-11-14T00:30:26.033Z,23.25
2022-11-14T00:30:48.930Z,26.35
2022-11-14T00:31:11.400Z,25.00
2022-11-14T00:31:33.155Z,24.25
2022-11-14T00:31:55.305Z,24.20
2022-11-14T00:32:17.079Z,22.58
2022-11-14T00:32:38.801Z,21.85
2022-11-14T00:33:00.974Z,23.70
2022-11-14T00:33:22.773Z,24.63
2022-11-14T00:33:44.617Z,26.15
2022-11-14T00:34:06.727Z,23.75
2022-11-14T00:34:28.539Z,25.45
2022-11-14T00:34:50.681Z,25.83
2022-11-14T00:35:12.855Z,23.13
2022-11-14T00:35:34.992Z,23.10
2022-11-14T00:35:57.536Z,23.15
2022-11-14T00:36:19.794Z,22.02
2022-11-14T00:36:41.655Z,23.58
2022-11-14T00:37:03.900Z,22.38
2022-11-14T00:37:25.638Z,22.83
2022-11-14T00:37:47.754Z,23.15
2022-11-14T00:38:09.902Z,23.73
2022-11-14T00:38:32.060Z,24.63
2022-11-14T00:38:55.236Z,27.42
2022-11-14T00:39:17.037Z,22.75
2022-11-14T00:39:38.737Z,26.57
2022-11-14T00:40:00.703Z,23.50
2022-11-14T00:40:22.804Z,24.02
2022-11-14T00:40:44.536Z,21.98
2022-11-14T00:41:06.415Z,24.42
2022-11-14T00:41:28.251Z,22.60
2022-11-14T00:41:50.056Z,22.25
2022-11-14T00:42:12.157Z,22.33
2022-11-14T00:42:34.803Z,20.10
2022-11-14T00:42:56.557Z,20.50
2022-11-14T00:43:18.354Z,24.67
2022-11-14T00:43:40.423Z,21.63
2022-11-14T00:44:02.230Z,22.35
2022-11-14T00:44:23.977Z,21.92
2022-11-14T00:44:45.687Z,21.50
2022-11-14T00:45:07.723Z,22.13
2022-11-14T00:45:29.878Z,22.17
2022-11-14T00:45:51.597Z,22.23
2022-11-14T00:46:13.794Z,21.95
2022-11-14T00:46:36.330Z,24.42
2022-11-14T00:46:58.107Z,22.02
2022-11-14T00:47:20.296Z,22.30
2022-11-14T00:47:42.186Z,21.20
2022-11-14T00:48:03.995Z,20.17
2022-11-14T00:48:25.760Z,20.98
2022-11-14T00:48:47.566Z,21.77
2022-11-14T00:49:09.491Z,20.17
2022-11-14T00:49:31.457Z,19.88
2022-11-14T00:49:53.203Z,19.90
2022-11-14T00:50:17.116Z,22.77
2022-11-14T00:50:38.989Z,19.75
2022-11-14T00:51:00.789Z,20.95
2022-11-14T00:51:22.748Z,20.42
2022-11-14T00:51:44.552Z,20.20
2022-11-14T00:52:06.406Z,21.10
2022-11-14T00:52:28.115Z,20.73
2022-11-14T00:52:49.842Z,19.13
2022-11-14T00:53:12.142Z,19.30
2022-11-14T00:53:34.032Z,19.65
2022-11-14T00:53:56.135Z,20.80
2022-11-14T00:54:18.337Z,21.20
2022-11-14T00:54:40.449Z,21.40
2022-11-14T00:55:02.273Z,19.98
2022-11-14T00:55:24.065Z,19.75
2022-11-14T00:55:45.781Z,19.08
2022-11-14T00:56:07.978Z,21.02
2022-11-14T00:56:29.952Z,22.48
2022-11-14T00:56:51.717Z,20.63
2022-11-14T00:57:13.825Z,20.25
2022-11-14T00:57:35.561Z,19.98
2022-11-14T00:57:57.323Z,22.65
2022-11-14T00:58:19.018Z,21.73
2022-11-14T00:58:40.931Z,19.95
2022-11-14T00:59:03.106Z,18.60
2022-11-14T00:59:24.861Z,18.90
2022-11-14T00:59:46.996Z,19.70
2022-11-14T01:00:10.157Z,18.98
2022-11-14T01:00:32.070Z,19.45
2022-11-14T01:00:54.316Z,18.70
2022-11-14T01:01:16.226Z,20.52
2022-11-14T01:01:38.064Z,20.30
2022-11-14T01:02:00.011Z,19.00
2022-11-14T01:02:22.657Z,20.08
2022-11-14T01:02:44.468Z,21.95
2022-11-14T01:03:06.312Z,20.98
2022-11-14T01:03:28.183Z,20.95
2022-11-14T01:03:51.009Z,20.20
2022-11-14T01:04:12.739Z,22.17
2022-11-14T01:04:34.695Z,19.02
2022-11-14T01:04:56.435Z,18.73
2022-11-14T01:05:18.231Z,18.17
2022-11-14T01:05:47.707Z,19.15
2022-11-14T01:06:11.782Z,19.73
2022-11-14T01:06:33.511Z,20.08
2022-11-14T01:06:55.246Z,18.75
2022-11-14T01:07:17.547Z,17.48
2022-11-14T01:07:39.402Z,20.67
2022-11-14T01:08:01.211Z,18.40
2022-11-14T01:08:23.182Z,18.75
2022-11-14T01:08:45.342Z,21.00
2022-11-14T01:09:07.519Z,22.48
2022-11-14T01:09:29.455Z,19.65
2022-11-14T01:09:51.185Z,22.30
2022-11-14T01:10:13.078Z,18.35
2022-11-14T01:10:35.023Z,18.33
2022-11-14T01:10:56.747Z,18.02
2022-11-14T01:11:20.289Z,18.83
2022-11-14T01:11:42.192Z,20.48
2022-11-14T01:12:04.605Z,19.25
2022-11-14T01:12:26.852Z,17.83
2022-11-14T01:12:49.065Z,18.30
2022-11-14T01:13:11.496Z,17.13
2022-11-14T01:13:33.301Z,19.67
2022-11-14T01:13:55.425Z,17.75
2022-11-14T01:14:17.189Z,19.88
2022-11-14T01:14:40.588Z,17.73
2022-11-14T01:15:02.381Z,16.60
2022-11-14T01:15:24.142Z,15.88
2022-11-14T01:15:48.688Z,16.95
2022-11-14T01:16:11.232Z,16.30
2022-11-14T01:16:33.106Z,15.32
2022-11-14T01:16:54.833Z,15.18
2022-11-14T01:17:16.670Z,16.90
2022-11-14T01:17:38.495Z,15.93
2022-11-14T01:18:02.779Z,16.08
2022-11-14T01:18:24.562Z,15.43
2022-11-14T01:18:46.871Z,15.75
2022-11-14T01:19:09.024Z,41.55
2022-11-14T01:19:30.850Z,61.63
2022-11-14T01:19:52.590Z,36.15
2022-11-14T01:20:14.951Z,21.40
2022-11-14T01:20:42.186Z,18.23
2022-11-14T01:21:09.165Z,17.35
2022-11-14T01:21:31.285Z,15.45
2022-11-14T01:21:53.030Z,15.75
2022-11-14T01:22:14.848Z,16.83
2022-11-14T01:22:36.617Z,17.98
2022-11-14T01:22:58.409Z,18.23
2022-11-14T01:23:20.168Z,17.13
2022-11-14T01:23:42.013Z,14.77
2022-11-14T01:24:04.907Z,13.55
2022-11-14T01:24:26.718Z,14.38
2022-11-14T01:24:48.474Z,15.55
2022-11-14T01:25:10.194Z,16.27
2022-11-14T01:25:33.971Z,16.55
2022-11-14T01:26:13.130Z,16.33
2022-11-14T01:26:34.912Z,15.23
2022-11-14T01:26:56.997Z,15.40
2022-11-14T01:27:18.844Z,15.20
2022-11-14T01:27:40.682Z,15.73
2022-11-14T01:28:05.241Z,15.50
2022-11-14T01:28:28.024Z,14.77
2022-11-14T01:28:50.386Z,17.15
2022-11-14T01:29:12.541Z,21.33
2022-11-14T01:29:34.763Z,17.73
2022-11-14T01:29:56.537Z,16.95
2022-11-14T01:30:18.461Z,17.50
2022-11-14T01:30:40.644Z,15.13
2022-11-14T01:31:10.575Z,15.82
2022-11-14T01:31:32.377Z,14.60
2022-11-14T01:31:54.162Z,12.77
2022-11-14T01:32:15.919Z,14.95
2022-11-14T01:32:37.716Z,14.68
2022-11-14T01:32:59.853Z,13.38
2022-11-14T01:33:21.687Z,13.50
2022-11-14T01:33:43.781Z,15.63
2022-11-14T01:34:05.518Z,15.27
2022-11-14T01:34:27.287Z,14.00
2022-11-14T01:34:49.055Z,15.48
2022-11-14T01:35:10.816Z,14.55
2022-11-14T01:35:33.279Z,14.80
2022-11-14T01:35:59.240Z,13.75
2022-11-14T01:36:21.752Z,14.15
2022-11-14T01:36:43.743Z,14.88
2022-11-14T01:37:05.518Z,15.23
2022-11-14T01:37:27.716Z,14.77
2022-11-14T01:37:49.474Z,14.95
2022-11-14T01:38:13.029Z,14.48
2022-11-14T01:38:35.176Z,14.07
2022-11-14T01:38:56.967Z,13.98
2022-11-14T01:39:18.730Z,13.38
2022-11-14T01:39:40.896Z,14.57
2022-11-14T01:40:02.744Z,16.60
2022-11-14T01:40:24.932Z,14.25
2022-11-14T01:40:46.868Z,14.07
2022-11-14T01:41:12.588Z,14.88
2022-11-14T01:41:34.370Z,14.48
2022-11-14T01:41:56.125Z,13.60
2022-11-14T01:42:18.356Z,15.13
2022-11-14T01:42:42.369Z,14.48
2022-11-14T01:43:19.031Z,13.02
2022-11-14T01:43:41.744Z,13.80
2022-11-14T01:44:05.382Z,14.13
2022-11-14T01:44:43.861Z,14.48
2022-11-14T01:45:42.951Z,14.18
2022-11-14T01:46:07.330Z,15.52
2022-11-14T01:46:38.599Z,14.52
2022-11-14T01:47:00.334Z,15.18
2022-11-14T01:47:29.660Z,14.90
2022-11-14T01:47:51.861Z,12.80
2022-11-14T01:48:39.620Z,13.25
2022-11-14T01:49:11.879Z,16.10
2022-11-14T01:49:39.273Z,15.18
2022-11-14T01:50:04.773Z,14.10
2022-11-14T01:50:28.135Z,15.13
2022-11-14T01:51:01.731Z,16.13
2022-11-14T01:51:45.546Z,14.68
2022-11-14T01:52:21.377Z,12.55
2022-11-14T01:52:43.155Z,14.57
2022-11-14T01:53:04.908Z,13.20
2022-11-14T01:53:26.972Z,12.73
2022-11-14T01:53:51.725Z,15.10
2022-11-14T01:54:25.224Z,14.13
2022-11-14T01:54:50.133Z,12.68
2022-11-14T01:55:11.937Z,13.77
2022-11-14T01:55:33.724Z,14.55
2022-11-14T01:55:59.228Z,12.88
2022-11-14T01:56:34.997Z,13.75
2022-11-14T01:57:02.337Z,12.88
2022-11-14T01:57:29.640Z,12.35
2022-11-14T01:57:51.789Z,13.85
2022-11-14T01:58:14.709Z,11.65
2022-11-14T01:58:39.234Z,13.75
2022-11-14T01:59:10.477Z,13.73
2022-11-14T01:59:37.839Z,11.38
2022-11-14T02:00:03.706Z,12.55
2022-11-14T02:00:25.877Z,12.88
2022-11-14T02:00:47.907Z,13.32
2022-11-14T02:01:10.144Z,14.05
2022-11-14T02:01:35.407Z,12.07
2022-11-14T02:02:01.958Z,13.23
2022-11-14T02:02:25.628Z,12.88
2022-11-14T02:02:48.402Z,12.30
2022-11-14T02:03:13.429Z,12.88
2022-11-14T02:03:37.075Z,11.63
2022-11-14T02:04:00.706Z,11.70
2022-11-14T02:04:37.915Z,12.85
2022-11-14T02:05:07.501Z,14.48
2022-11-14T02:05:29.981Z,14.43
2022-11-14T02:05:53.526Z,15.05
2022-11-14T02:06:18.494Z,13.27
2022-11-14T02:06:40.812Z,13.32
2022-11-14T02:07:04.627Z,13.82
2022-11-14T02:07:28.331Z,12.70
2022-11-14T02:07:50.129Z,12.23
2022-11-14T02:08:14.132Z,12.57
2022-11-14T02:08:37.082Z,14.15
2022-11-14T02:09:04.219Z,13.63
2022-11-14T02:09:28.386Z,11.25
2022-11-14T02:09:50.218Z,14.68
2022-11-14T02:10:16.976Z,14.48
2022-11-14T02:10:39.117Z,12.98
2022-11-14T02:11:00.891Z,12.38
2022-11-14T02:11:22.813Z,12.25
2022-11-14T02:11:46.066Z,12.52
2022-11-14T02:12:11.130Z,11.02
2022-11-14T02:12:33.442Z,13.35
2022-11-14T02:12:55.345Z,13.45
2022-11-14T02:13:17.090Z,12.05
2022-11-14T02:13:39.423Z,12.15
2022-11-14T02:14:01.773Z,13.15
2022-11-14T02:14:24.030Z,12.43
2022-11-14T02:14:47.811Z,12.40
2022-11-14T02:15:10.265Z,12.48
2022-11-14T02:15:32.564Z,13.23
2022-11-14T02:15:54.851Z,12.43
2022-11-14T02:16:16.712Z,11.18
2022-11-14T02:16:41.122Z,11.20
2022-11-14T02:17:28.009Z,13.18
2022-11-14T02:17:45.496Z,13.85
2022-11-14T02:18:08.010Z,13.30
2022-11-14T02:18:30.021Z,11.77
2022-11-14T02:18:52.034Z,11.40
2022-11-14T02:19:15.834Z,11.20
2022-11-14T02:19:47.406Z,14.95
2022-11-14T02:20:12.392Z,12.38
2022-11-14T02:20:37.744Z,11.73
2022-11-14T02:20:59.541Z,10.80
2022-11-14T02:21:21.395Z,14.18
2022-11-14T02:21:43.618Z,12.27
2022-11-14T02:22:05.761Z,11.25
2022-11-14T02:22:27.659Z,13.18
2022-11-14T02:22:49.786Z,12.38
2022-11-14T02:23:12.662Z,11.50
2022-11-14T02:23:34.528Z,13.48
2022-11-14T02:23:56.261Z,11.82
2022-11-14T02:24:18.068Z,11.20
2022-11-14T02:24:40.200Z,11.88
2022-11-14T02:25:02.855Z,12.25
2022-11-14T02:25:24.904Z,12.93
2022-11-14T02:25:46.623Z,11.15
2022-11-14T02:26:08.342Z,10.93
2022-11-14T02:26:34.288Z,11.95
2022-11-14T02:26:59.088Z,10.80
2022-11-14T02:27:20.905Z,11.38
2022-11-14T02:27:43.355Z,12.43
2022-11-14T02:28:07.486Z,11.20
2022-11-14T02:28:29.466Z,9.95
2022-11-14T02:28:51.543Z,12.38
2022-11-14T02:29:13.290Z,10.23
2022-11-14T02:29:35.944Z,10.48
2022-11-14T02:30:09.382Z,12.32
2022-11-14T02:30:31.215Z,10.45
2022-11-14T02:30:52.964Z,10.35
2022-11-14T02:31:15.238Z,8.82
2022-11-14T02:31:37.084Z,9.07
2022-11-14T02:31:59.149Z,8.98
2022-11-14T02:32:20.983Z,9.82
2022-11-14T02:33:09.461Z,10.93
2022-11-14T02:33:25.123Z,9.63
2022-11-14T02:33:46.902Z,10.10
2022-11-14T02:34:08.664Z,10.05
2022-11-14T02:34:30.784Z,10.52
2022-11-14T02:34:52.548Z,10.52
2022-11-14T02:35:14.294Z,8.65
2022-11-14T02:35:36.087Z,9.25
2022-11-14T02:35:57.867Z,10.43
2022-11-14T02:36:19.702Z,10.05
2022-11-14T02:36:41.466Z,10.10
2022-11-14T02:37:03.314Z,10.95
2022-11-14T02:37:25.133Z,10.38
2022-11-14T02:37:47.254Z,9.55
2022-11-14T02:38:09.431Z,10.75
2022-11-14T02:38:31.770Z,11.23
2022-11-14T02:38:53.710Z,10.27
2022-11-14T02:39:15.505Z,10.25
2022-11-14T02:39:37.361Z,9.77
2022-11-14T02:39:59.422Z,9.75
2022-11-14T02:40:21.207Z,8.68
2022-11-14T02:40:43.086Z,9.15
2022-11-14T02:41:05.045Z,9.82
2022-11-14T02:41:26.761Z,9.98
2022-11-14T02:41:49.748Z,9.30
2022-11-14T02:42:11.490Z,11.02
2022-11-14T02:42:33.261Z,10.25
2022-11-14T02:42:55.064Z,9.65
2022-11-14T02:43:16.803Z,8.63
2022-11-14T02:43:38.561Z,9.90
2022-11-14T02:44:00.425Z,10.25
2022-11-14T02:44:22.411Z,8.73
2022-11-14T02:44:44.211Z,8.57
2022-11-14T02:45:06.611Z,8.98
2022-11-14T02:45:28.706Z,8.25
2022-11-14T02:45:50.931Z,8.87
2022-11-14T02:46:13.053Z,8.05
2022-11-14T02:46:34.985Z,7.65
2022-11-14T02:46:56.735Z,7.60
2022-11-14T02:47:18.624Z,7.40
2022-11-14T02:47:40.357Z,8.27
2022-11-14T02:48:02.250Z,8.88
2022-11-14T02:48:24.023Z,8.68
2022-11-14T02:48:45.807Z,9.25
2022-11-14T02:49:07.583Z,8.63
2022-11-14T02:49:29.354Z,9.88
2022-11-14T02:49:51.637Z,7.93
2022-11-14T02:50:13.495Z,8.32
2022-11-14T02:50:35.675Z,8.32
2022-11-14T02:50:57.384Z,8.15
2022-11-14T02:51:19.533Z,8.77
2022-11-14T02:51:41.388Z,8.70
2022-11-14T02:52:03.205Z,7.57
2022-11-14T02:52:24.955Z,7.90
2022-11-14T02:52:46.758Z,9.15
2022-11-14T02:53:08.580Z,7.45
2022-11-14T02:53:30.311Z,8.18
2022-11-14T02:53:52.182Z,7.38
2022-11-14T02:54:14.006Z,8.32
2022-11-14T02:54:35.716Z,8.00
2022-11-14T02:54:57.474Z,7.22
2022-11-14T02:55:19.645Z,7.47
2022-11-14T02:55:41.716Z,8.57
2022-11-14T02:56:03.552Z,9.15
2022-11-14T02:56:25.352Z,6.95
2022-11-14T02:56:47.102Z,7.57
2022-11-14T02:57:08.852Z,7.28
2022-11-14T02:57:30.615Z,6.90
2022-11-14T02:57:52.453Z,7.70
2022-11-14T02:58:14.182Z,7.53
2022-11-14T02:58:35.948Z,7.70
2022-11-14T02:58:57.774Z,8.38
2022-11-14T02:59:19.604Z,8.00
2022-11-14T02:59:41.329Z,7.90
2022-11-14T03:00:09.937Z,6.90
2022-11-14T03:00:38.476Z,7.35
2022-11-14T03:01:20.188Z,6.75
2022-11-14T03:01:42.865Z,6.97
2022-11-14T03:02:04.727Z,6.47
2022-11-14T03:02:26.536Z,7.18
2022-11-14T03:02:48.336Z,6.88
2022-11-14T03:03:10.059Z,7.15
2022-11-14T03:03:31.816Z,8.02
2022-11-14T03:03:53.568Z,7.53
2022-11-14T03:04:15.397Z,7.05
2022-11-14T03:04:37.521Z,7.28
2022-11-14T03:04:59.690Z,7.20
2022-11-14T03:05:21.677Z,8.20
2022-11-14T03:05:43.420Z,6.32
2022-11-14T03:06:05.675Z,6.40
2022-11-14T03:06:27.392Z,7.35
2022-11-14T03:06:49.161Z,7.28
2022-11-14T03:07:11.316Z,6.35
2022-11-14T03:07:33.215Z,7.63
2022-11-14T03:07:56.584Z,7.30
2022-11-14T03:08:18.703Z,7.57
2022-11-14T03:08:40.437Z,6.57
2022-11-14T03:09:02.333Z,6.30
2022-11-14T03:09:24.065Z,7.88
2022-11-14T03:09:45.805Z,6.63
2022-11-14T03:10:09.517Z,7.47
2022-11-14T03:10:31.812Z,7.80
2022-11-14T03:10:53.912Z,8.13
2022-11-14T03:11:15.725Z,7.20
2022-11-14T03:11:38.803Z,6.60
2022-11-14T03:12:00.601Z,6.68
2022-11-14T03:12:22.640Z,7.25
2022-11-14T03:12:44.375Z,7.55
2022-11-14T03:13:06.532Z,6.03
2022-11-14T03:13:31.039Z,6.18
2022-11-14T03:13:52.840Z,6.60
2022-11-14T03:14:14.606Z,7.57
2022-11-14T03:14:36.888Z,6.00
2022-11-14T03:14:58.714Z,5.53
2022-11-14T03:15:20.839Z,6.82
2022-11-14T03:15:42.622Z,6.95
2022-11-14T03:16:11.839Z,6.32
2022-11-14T03:16:33.576Z,6.28
2022-11-14T03:16:55.616Z,7.25
2022-11-14T03:17:17.386Z,6.53
2022-11-14T03:17:39.417Z,6.93
2022-11-14T03:18:01.265Z,6.70
2022-11-14T03:18:23.084Z,6.68
2022-11-14T03:18:44.886Z,6.95
2022-11-14T03:19:06.692Z,6.68
2022-11-14T03:19:28.484Z,6.28
2022-11-14T03:19:50.699Z,6.97
2022-11-14T03:20:12.445Z,4.68
2022-11-14T03:20:35.163Z,4.90
2022-11-14T03:20:56.965Z,5.90
2022-11-14T03:21:20.563Z,6.47
2022-11-14T03:21:42.289Z,7.03
2022-11-14T03:22:04.494Z,5.78
2022-11-14T03:22:27.328Z,6.22
2022-11-14T03:22:49.461Z,5.63
2022-11-14T03:23:11.190Z,6.55
2022-11-14T03:23:33.505Z,6.75
2022-11-14T03:23:55.322Z,6.53
2022-11-14T03:24:17.220Z,7.45
2022-11-14T03:24:39.376Z,6.85
2022-11-14T03:25:01.324Z,5.97
2022-11-14T03:25:23.527Z,5.60
2022-11-14T03:25:45.282Z,6.85
2022-11-14T03:26:09.153Z,7.63
2022-11-14T03:26:31.084Z,6.50
2022-11-14T03:26:52.920Z,7.25
2022-11-14T03:27:14.683Z,6.60
2022-11-14T03:27:36.954Z,5.43
2022-11-14T03:27:58.913Z,6.50
2022-11-14T03:28:20.652Z,5.80
2022-11-14T03:28:43.096Z,6.28
2022-11-14T03:29:04.948Z,7.63
2022-11-14T03:29:27.072Z,6.47
2022-11-14T03:29:49.176Z,6.13
2022-11-14T03:30:11.538Z,6.75
2022-11-14T03:30:33.310Z,8.07
2022-11-14T03:30:55.393Z,7.88
2022-11-14T03:31:17.119Z,5.63
2022-11-14T03:31:38.901Z,6.75
2022-11-14T03:32:00.691Z,5.75
2022-11-14T03:32:22.491Z,5.28
2022-11-14T03:32:44.846Z,5.68
2022-11-14T03:33:06.962Z,6.15
2022-11-14T03:33:29.427Z,5.40
2022-11-14T03:33:51.134Z,6.38
2022-11-14T03:34:14.260Z,5.90
2022-11-14T03:34:36.055Z,5.88
2022-11-14T03:34:58.894Z,6.63
2022-11-14T03:35:20.701Z,7.30
2022-11-14T03:35:43.724Z,7.10
2022-11-14T03:36:06.069Z,6.35
2022-11-14T03:36:27.863Z,6.45
2022-11-14T03:36:49.697Z,5.30
2022-11-14T03:37:11.579Z,5.32
2022-11-14T03:37:33.282Z,5.80
2022-11-14T03:37:56.553Z,6.68
2022-11-14T03:38:22.996Z,5.90
2022-11-14T03:38:44.912Z,5.68
2022-11-14T03:39:06.977Z,6.78
2022-11-14T03:39:28.800Z,6.55
2022-11-14T03:39:50.596Z,6.30
2022-11-14T03:40:12.845Z,6.03
2022-11-14T03:40:34.591Z,6.70
2022-11-14T03:40:58.933Z,6.03
2022-11-14T03:41:20.701Z,6.45
2022-11-14T03:41:42.829Z,5.28
2022-11-14T03:42:05.154Z,6.15
2022-11-14T03:42:27.389Z,6.22
2022-11-14T03:42:49.093Z,6.18
2022-11-14T03:43:11.374Z,6.60
2022-11-14T03:43:34.667Z,6.93
2022-11-14T03:43:56.437Z,6.68
2022-11-14T03:44:18.228Z,6.18
2022-11-14T03:44:40.207Z,5.68
2022-11-14T03:45:02.603Z,6.22
2022-11-14T03:45:24.499Z,6.28
2022-11-14T03:45:47.433Z,7.20
2022-11-14T03:46:09.173Z,6.65
2022-11-14T03:46:31.321Z,6.45
2022-11-14T03:46:54.166Z,4.97
2022-11-14T03:47:15.921Z,5.63
2022-11-14T03:47:37.695Z,6.18
2022-11-14T03:47:59.433Z,6.45
2022-11-14T03:48:21.155Z,6.40
2022-11-14T03:48:42.978Z,7.18
2022-11-14T03:49:04.763Z,8.05
2022-11-14T03:49:26.509Z,6.50
2022-11-14T03:49:48.265Z,6.35
2022-11-14T03:50:10.432Z,5.32
2022-11-14T03:50:32.607Z,6.70
2022-11-14T03:50:54.712Z,7.55
2022-11-14T03:51:16.473Z,5.95
2022-11-14T03:51:38.275Z,5.30
2022-11-14T03:52:00.057Z,6.25
2022-11-14T03:52:21.848Z,7.00
2022-11-14T03:52:43.560Z,5.95
2022-11-14T03:53:05.595Z,5.70
2022-11-14T03:53:28.334Z,5.70
2022-11-14T03:53:50.052Z,6.72
2022-11-14T03:54:11.849Z,5.32
2022-11-14T03:54:33.671Z,4.50
2022-11-14T03:54:55.472Z,5.35
2022-11-14T03:55:17.439Z,5.47
2022-11-14T03:55:40.155Z,5.30
2022-11-14T03:56:01.958Z,6.38
2022-11-14T03:56:23.761Z,6.97
2022-11-14T03:56:45.543Z,6.25
2022-11-14T03:57:07.380Z,6.85
2022-11-14T03:57:29.158Z,5.35
2022-11-14T03:57:50.977Z,6.07
2022-11-14T03:58:13.158Z,5.55
2022-11-14T03:58:34.938Z,5.32
2022-11-14T03:58:56.713Z,5.75
2022-11-14T03:59:18.849Z,5.47
2022-11-14T03:59:40.609Z,6.47
2022-11-14T04:00:02.356Z,6.25
2022-11-14T04:00:24.175Z,6.18
2022-11-14T04:00:46.280Z,5.85
2022-11-14T04:01:08.264Z,5.78
2022-11-14T04:01:30.453Z,5.47
2022-11-14T04:01:52.571Z,4.90
2022-11-14T04:02:14.684Z,6.00
2022-11-14T04:02:36.587Z,5.97
2022-11-14T04:02:58.719Z,4.97
2022-11-14T04:03:20.840Z,5.65
2022-11-14T04:03:42.720Z,4.93
2022-11-14T04:04:04.540Z,6.03
2022-11-14T04:04:26.296Z,6.53
2022-11-14T04:04:48.153Z,4.63
2022-11-14T04:05:10.271Z,4.90
2022-11-14T04:05:32.380Z,5.60
2022-11-14T04:05:54.099Z,6.20
2022-11-14T04:06:15.864Z,25.15
2022-11-14T04:06:37.641Z,20.80
2022-11-14T04:06:59.830Z,6.60
2022-11-14T04:07:21.710Z,6.03
2022-11-14T04:07:43.483Z,6.50
2022-11-14T04:08:06.584Z,6.70
2022-11-14T04:08:28.920Z,5.90
2022-11-14T04:08:51.923Z,4.95
2022-11-14T04:09:14.092Z,5.90
2022-11-14T04:09:36.189Z,5.57
2022-11-14T04:09:58.346Z,6.55
2022-11-14T04:10:20.346Z,7.78
2022-11-14T04:10:42.156Z,6.55
2022-11-14T04:11:03.912Z,5.70
2022-11-14T04:11:25.671Z,5.88
2022-11-14T04:11:47.783Z,5.07
2022-11-14T04:12:15.338Z,5.05
2022-11-14T04:12:37.545Z,6.22
2022-11-14T04:12:59.304Z,5.53
2022-11-14T04:13:21.049Z,6.00
2022-11-14T04:13:43.158Z,5.78
2022-11-14T04:14:04.969Z,6.15
2022-11-14T04:14:26.675Z,6.22
2022-11-14T04:14:48.443Z,6.22
2022-11-14T04:15:10.648Z,6.68
2022-11-14T04:15:32.475Z,5.07
2022-11-14T04:15:58.688Z,4.60
2022-11-14T04:16:20.443Z,7.63
2022-11-14T04:16:42.688Z,8.25
2022-11-14T04:17:04.525Z,6.47
2022-11-14T04:17:26.363Z,4.75
2022-11-14T04:17:48.291Z,4.90
2022-11-14T04:18:10.088Z,4.75
2022-11-14T04:18:32.277Z,5.82
2022-11-14T04:18:54.195Z,4.38
2022-11-14T04:19:16.339Z,4.57
2022-11-14T04:19:38.147Z,4.63
2022-11-14T04:19:59.863Z,6.00
2022-11-14T04:20:21.802Z,5.68
2022-11-14T04:20:43.530Z,4.68
2022-11-14T04:21:05.520Z,4.85
2022-11-14T04:21:27.316Z,4.93
2022-11-14T04:21:49.072Z,5.05
2022-11-14T04:22:11.225Z,4.47
2022-11-14T04:22:33.012Z,4.80
2022-11-14T04:22:54.775Z,4.57
2022-11-14T04:23:16.997Z,5.25
2022-11-14T04:23:39.150Z,6.43
2022-11-14T04:24:01.042Z,5.97
2022-11-14T04:24:22.794Z,6.00
2022-11-14T04:24:44.552Z,6.03
2022-11-14T04:25:07.557Z,4.13
2022-11-14T04:25:29.312Z,4.35
2022-11-14T04:25:51.012Z,5.00
2022-11-14T04:26:12.783Z,4.93
2022-11-14T04:26:34.573Z,6.22
2022-11-14T04:26:56.412Z,5.68
2022-11-14T04:27:18.176Z,4.93
2022-11-14T04:27:40.137Z,5.15
2022-11-14T04:28:01.885Z,4.38
2022-11-14T04:28:23.696Z,5.03
2022-11-14T04:28:45.846Z,5.60
2022-11-14T04:29:07.734Z,4.25
2022-11-14T04:29:29.547Z,3.97
2022-11-14T04:29:51.323Z,4.93
2022-11-14T04:30:13.142Z,4.53
2022-11-14T04:30:35.237Z,4.85
2022-11-14T04:30:57.008Z,5.45
2022-11-14T04:31:18.849Z,5.97
2022-11-14T04:31:40.585Z,6.68
2022-11-14T04:32:02.357Z,7.75
2022-11-14T04:32:24.135Z,4.93
2022-11-14T04:32:48.459Z,3.33
2022-11-14T04:33:10.212Z,4.55
2022-11-14T04:33:31.979Z,5.80
2022-11-14T04:33:53.711Z,4.63
2022-11-14T04:34:15.812Z,4.93
2022-11-14T04:34:37.912Z,6.70
2022-11-14T04:34:59.954Z,4.68
2022-11-14T04:35:21.675Z,5.50
2022-11-14T04:35:43.394Z,5.10
2022-11-14T04:36:05.417Z,7.25
2022-11-14T04:36:27.196Z,5.95
2022-11-14T04:36:51.219Z,4.97
2022-11-14T04:37:13.245Z,5.60
2022-11-14T04:37:35.017Z,3.95
2022-11-14T04:37:57.201Z,4.43
2022-11-14T04:38:19.308Z,3.72
2022-11-14T04:38:41.532Z,4.05
2022-11-14T04:39:03.445Z,4.65
2022-11-14T04:39:25.222Z,4.00
2022-11-14T04:39:47.332Z,4.53
2022-11-14T04:40:09.614Z,5.53
2022-11-14T04:40:31.324Z,4.07
2022-11-14T04:40:53.858Z,5.20
2022-11-14T04:41:15.576Z,3.65
2022-11-14T04:41:37.541Z,3.10
2022-11-14T04:41:59.872Z,3.83
2022-11-14T04:42:21.611Z,4.35
2022-11-14T04:42:43.337Z,3.92
2022-11-14T04:43:05.100Z,5.18
2022-11-14T04:43:26.828Z,4.63
2022-11-14T04:43:51.012Z,3.83
2022-11-14T04:44:12.952Z,4.95
2022-11-14T04:44:34.720Z,5.53
2022-11-14T04:44:56.501Z,4.22
2022-11-14T04:45:18.320Z,3.60
2022-11-14T04:45:40.123Z,4.90
2022-11-14T04:46:01.918Z,5.47
2022-11-14T04:46:23.675Z,4.80
2022-11-14T04:46:45.626Z,4.72
2022-11-14T04:47:07.423Z,5.30
2022-11-14T04:47:29.169Z,6.65
2022-11-14T04:47:50.907Z,4.90
2022-11-14T04:48:13.967Z,3.80
2022-11-14T04:48:35.736Z,5.57
2022-11-14T04:48:57.459Z,5.53
2022-11-14T04:49:19.612Z,3.95
2022-11-14T04:49:41.351Z,5.40
2022-11-14T04:50:03.956Z,4.55
2022-11-14T04:50:25.669Z,4.28
2022-11-14T04:50:47.399Z,4.90
2022-11-14T04:51:09.146Z,4.88
2022-11-14T04:51:31.852Z,4.78
2022-11-14T04:51:53.704Z,4.55
2022-11-14T04:52:15.489Z,4.40
2022-11-14T04:52:37.446Z,4.93
2022-11-14T04:52:59.658Z,5.70
2022-11-14T04:53:21.864Z,4.70
2022-11-14T04:53:44.148Z,6.43
2022-11-14T04:54:05.923Z,4.25
2022-11-14T04:54:27.662Z,5.22
2022-11-14T04:54:49.415Z,5.35
2022-11-14T04:55:11.319Z,4.57
2022-11-14T04:55:33.347Z,5.40
2022-11-14T04:55:55.730Z,5.03
2022-11-14T04:56:17.609Z,4.60
2022-11-14T04:56:39.773Z,5.15